Ana Sayfa
METAR-TAF:

METAR-TAF

Havaalanları :

Thule Hava Üssü

Thule, Grönland

Enlem: 76-32N, Boylam: 068-42W, yükseklik: 77 m

Güncel hava durumu gözlemi

Rapor saat 20:56 UTC de 39 dakika önce yapıldı.
Sakin rüzgar
Sıcaklık -2°C
Nem 59%
Basınç 1013 hPa
Görüş mesafesi 10 km veya daha fazla
Açık gökyüzü

METAR: BGTL 222056Z AUTO 00000KT 9999 CLR M02/M09 A2992 RMK AO2 SLP118 T10241089 50001 TSNO $

Saat: 18:35 (21:35 UTC)

Tahmin

Rapor saat 21:00 UTC de 35 dakika önce yapıldı.
Ayın 22'si saat 21 UTC'den ayın 23'si saat 23 UTC'ye kadar geçerli Tahmin
Rüzgar değişken yönden 6 kt
Görüş mesafesi: 2401 m
4000 ft yükseklikte az bulutlu

TAF: BGTL 222100Z 2221/2323 VRB06KT 9999 FEW040 QNH2963INS TX00/2317Z TNM08/2308Z LAST NO AMDS AFT 2221 NEXT 2401

4.000'den fazla havaalanı için hava durumu gözlemleri ve tahminleri (METAR ve TAF raporları).

Kullanılabilir istasyonlar harita üzerinde sarı ve kırmızı noktalarla gösterilir.

İstasyonun adını görmek için fareyi noktanın üzerinde gezdirin.

Sonrasında hava gözlem ve tahminlerini görmek için tıklayın.

Haritayı değiştirmek için: yaklaştırmak için siyah artı işaretli yeşil düğmeye ve uzaklaştırmak için de eksi işaretli düğmeye hızla tıklayın; bitişik haritalar için yeşil okları kullanın.


METAR-TAF: